createdAt,value
2017-04-06T00:00:34.539Z,57.50
2017-04-06T00:01:32.364Z,57.90
2017-04-06T00:02:30.095Z,57.70
2017-04-06T00:03:27.803Z,58.00
2017-04-06T00:04:25.554Z,57.70
2017-04-06T00:05:23.396Z,58.30
2017-04-06T00:06:22.197Z,58.30
2017-04-06T00:07:19.911Z,57.70
2017-04-06T00:08:17.631Z,57.70
2017-04-06T00:09:15.404Z,57.90
2017-04-06T00:10:13.507Z,57.40
2017-04-06T00:11:11.904Z,58.20
2017-04-06T00:12:09.660Z,58.10
2017-04-06T00:13:07.342Z,57.60
2017-04-06T00:14:05.633Z,57.90
2017-04-06T00:15:04.324Z,57.70
2017-04-06T00:16:02.049Z,57.80
2017-04-06T00:16:59.796Z,57.60
2017-04-06T00:17:57.449Z,57.80
2017-04-06T00:18:55.808Z,57.70
2017-04-06T00:19:53.516Z,57.40
2017-04-06T00:20:51.660Z,57.80
2017-04-06T00:21:49.383Z,57.00
2017-04-06T00:22:47.111Z,57.90
2017-04-06T00:23:44.824Z,57.30
2017-04-06T00:24:42.568Z,57.90
2017-04-06T00:25:40.639Z,58.20
2017-04-06T00:26:39.100Z,58.10
2017-04-06T00:27:36.773Z,58.60
2017-04-06T00:28:34.447Z,59.00
2017-04-06T00:29:32.143Z,58.40
2017-04-06T00:30:30.540Z,58.60
2017-04-06T00:31:28.799Z,58.50
2017-04-06T00:32:26.488Z,58.60
2017-04-06T00:33:24.192Z,58.70
2017-04-06T00:34:21.855Z,58.60
2017-04-06T00:35:19.607Z,58.40
2017-04-06T00:36:17.323Z,58.70
2017-04-06T00:37:15.022Z,58.90
2017-04-06T00:38:12.768Z,58.70
2017-04-06T00:39:11.418Z,59.10
2017-04-06T00:40:09.604Z,58.80
2017-04-06T00:41:07.266Z,58.20
2017-04-06T00:42:05.004Z,58.80
2017-04-06T00:43:02.752Z,58.20
2017-04-06T00:44:00.403Z,57.80
2017-04-06T00:44:58.076Z,58.60
2017-04-06T00:45:56.342Z,59.00
2017-04-06T00:46:54.077Z,58.30
2017-04-06T00:47:51.766Z,58.30
2017-04-06T00:48:49.436Z,58.20
2017-04-06T00:49:47.129Z,58.40
2017-04-06T00:50:44.844Z,58.00
2017-04-06T00:51:42.772Z,58.20
2017-04-06T00:52:40.411Z,58.70
2017-04-06T00:53:38.123Z,58.50
2017-04-06T00:54:35.783Z,58.40
2017-04-06T00:55:33.508Z,58.70
2017-04-06T00:56:32.124Z,59.50
2017-04-06T00:57:29.787Z,58.70
2017-04-06T00:58:27.522Z,58.80
2017-04-06T00:59:25.214Z,59.40
2017-04-06T01:00:23.112Z,59.60
2017-04-06T01:01:21.020Z,59.20
2017-04-06T01:02:18.663Z,59.90
2017-04-06T01:03:17.123Z,59.10
2017-04-06T01:04:14.844Z,59.70
2017-04-06T01:05:12.605Z,59.60
2017-04-06T01:06:10.283Z,60.00
2017-04-06T01:07:08.009Z,59.90
2017-04-06T01:08:05.761Z,59.80
2017-04-06T01:09:04.096Z,60.10
2017-04-06T01:10:01.766Z,59.90
2017-04-06T01:10:59.562Z,59.70
2017-04-06T01:11:57.242Z,59.60
2017-04-06T01:12:54.950Z,59.70
2017-04-06T01:13:52.605Z,59.20
2017-04-06T01:14:50.351Z,59.40
2017-04-06T01:15:48.080Z,59.60
2017-04-06T01:16:45.856Z,59.30
2017-04-06T01:17:43.496Z,59.20
2017-04-06T01:18:41.204Z,58.90
2017-04-06T01:19:39.568Z,59.40
2017-04-06T01:20:37.287Z,58.90
2017-04-06T01:21:34.976Z,59.00
2017-04-06T01:22:32.659Z,58.30
2017-04-06T01:23:30.448Z,58.20
2017-04-06T01:24:28.164Z,58.80
2017-04-06T01:25:27.108Z,58.50
2017-04-06T01:26:24.744Z,58.60
2017-04-06T01:27:22.451Z,58.50
2017-04-06T01:28:20.140Z,58.50
2017-04-06T01:29:17.795Z,58.40
2017-04-06T01:30:15.571Z,58.20
2017-04-06T01:31:13.241Z,58.40
2017-04-06T01:32:10.964Z,58.40
2017-04-06T01:33:08.650Z,58.30
2017-04-06T01:34:06.319Z,58.40
2017-04-06T01:35:04.109Z,58.50
2017-04-06T01:36:03.208Z,58.20
2017-04-06T01:37:01.240Z,58.50
2017-04-06T01:37:59.892Z,57.70
2017-04-06T01:38:57.595Z,57.80
2017-04-06T01:39:55.296Z,58.10
2017-04-06T01:40:53.033Z,57.70
2017-04-06T01:41:50.739Z,57.80
2017-04-06T01:42:48.931Z,58.20
2017-04-06T01:43:46.579Z,58.50
2017-04-06T01:44:44.226Z,58.50
2017-04-06T01:45:42.001Z,58.40
2017-04-06T01:46:39.648Z,58.50
2017-04-06T01:47:37.337Z,58.80
2017-04-06T01:48:34.990Z,58.60
2017-04-06T01:49:33.003Z,58.50
2017-04-06T01:50:30.736Z,58.30
2017-04-06T01:51:29.189Z,58.50
2017-04-06T01:52:26.837Z,58.40
2017-04-06T01:53:24.519Z,58.00
2017-04-06T01:54:22.243Z,57.90
2017-04-06T01:55:20.029Z,58.50
2017-04-06T01:56:17.688Z,58.40
2017-04-06T01:57:15.418Z,57.90
2017-04-06T01:58:13.091Z,57.70
2017-04-06T01:59:10.803Z,58.40
2017-04-06T02:00:08.587Z,58.60
2017-04-06T02:01:07.196Z,58.30
2017-04-06T02:02:04.877Z,58.30
2017-04-06T02:03:02.545Z,58.30
2017-04-06T02:04:00.232Z,58.70
2017-04-06T02:04:58.476Z,58.40
2017-04-06T02:05:56.655Z,58.10
2017-04-06T02:06:54.400Z,57.50
2017-04-06T02:07:52.104Z,58.00
2017-04-06T02:08:49.799Z,58.40
2017-04-06T02:09:47.448Z,58.50
2017-04-06T02:10:45.340Z,58.60
2017-04-06T02:11:43.040Z,58.00
2017-04-06T02:12:40.798Z,57.90
2017-04-06T02:13:38.428Z,57.60
2017-04-06T02:14:36.177Z,58.30
2017-04-06T02:15:33.967Z,58.30
2017-04-06T02:16:31.600Z,58.20
2017-04-06T02:17:29.273Z,58.50
2017-04-06T02:18:26.952Z,58.50
2017-04-06T02:19:24.668Z,58.20
2017-04-06T02:20:22.667Z,58.50
2017-04-06T02:21:20.348Z,58.30
2017-04-06T02:22:18.052Z,58.00
2017-04-06T02:23:15.709Z,57.60
2017-04-06T02:24:13.363Z,58.00
2017-04-06T02:25:11.097Z,57.70
2017-04-06T02:26:09.067Z,58.10
2017-04-06T02:27:06.740Z,57.80
2017-04-06T02:28:04.456Z,57.60
2017-04-06T02:29:02.189Z,57.20
2017-04-06T02:29:59.884Z,57.40
2017-04-06T02:30:57.583Z,57.40
2017-04-06T02:31:55.600Z,57.60
2017-04-06T02:32:53.307Z,57.80
2017-04-06T02:33:50.972Z,57.30
2017-04-06T02:34:48.672Z,57.60
2017-04-06T02:35:46.412Z,57.30
2017-04-06T02:36:44.144Z,56.80
2017-04-06T02:37:41.881Z,57.20
2017-04-06T02:38:40.564Z,57.10
2017-04-06T02:39:38.280Z,57.10
2017-04-06T02:40:36.056Z,57.10
2017-04-06T02:41:33.725Z,57.20
2017-04-06T02:42:31.455Z,57.80
2017-04-06T02:43:29.099Z,57.90
2017-04-06T02:44:26.828Z,58.20
2017-04-06T02:45:24.623Z,57.50
2017-04-06T02:46:22.313Z,57.80
2017-04-06T02:47:20.032Z,57.90
2017-04-06T02:48:24.406Z,58.10
2017-04-06T02:49:22.105Z,56.90
2017-04-06T02:50:19.825Z,58.00
2017-04-06T02:51:17.548Z,58.20
2017-04-06T02:52:15.225Z,58.10
2017-04-06T02:53:12.872Z,58.50
2017-04-06T02:54:11.287Z,58.30
2017-04-06T02:55:09.948Z,58.30
2017-04-06T02:56:08.141Z,57.90
2017-04-06T02:57:05.760Z,58.40
2017-04-06T02:58:03.728Z,58.10
2017-04-06T02:59:01.367Z,58.70
2017-04-06T02:59:59.008Z,58.60
2017-04-06T03:00:56.713Z,57.00
2017-04-06T03:01:54.451Z,57.60
2017-04-06T03:02:52.119Z,57.90
2017-04-06T03:03:51.125Z,57.30
2017-04-06T03:04:48.833Z,56.60
2017-04-06T03:05:47.256Z,56.70
2017-04-06T03:06:44.970Z,57.50
2017-04-06T03:07:42.660Z,57.60
2017-04-06T03:08:40.311Z,57.60
2017-04-06T03:09:38.048Z,57.90
2017-04-06T03:10:36.243Z,57.70
2017-04-06T03:11:33.942Z,57.60
2017-04-06T03:12:31.621Z,57.70
2017-04-06T03:13:29.332Z,57.30
2017-04-06T03:14:27.063Z,57.70
2017-04-06T03:15:24.795Z,57.80
2017-04-06T03:16:22.463Z,57.20
2017-04-06T03:17:20.196Z,57.80
2017-04-06T03:18:17.927Z,57.50
2017-04-06T03:19:15.587Z,58.10
2017-04-06T03:20:13.296Z,57.90
2017-04-06T03:21:11.093Z,57.30
2017-04-06T03:22:08.860Z,57.50
2017-04-06T03:23:06.557Z,58.00
2017-04-06T03:24:04.277Z,58.20
2017-04-06T03:25:02.308Z,58.30
2017-04-06T03:25:59.983Z,58.30
2017-04-06T03:26:57.636Z,58.00
2017-04-06T03:27:55.313Z,56.70
2017-04-06T03:28:53.480Z,54.50
2017-04-06T03:29:51.845Z,54.70
2017-04-06T03:30:49.605Z,54.00
2017-04-06T03:31:47.626Z,53.00
2017-04-06T03:32:45.312Z,52.60
2017-04-06T03:33:42.969Z,51.20
2017-04-06T03:34:40.636Z,52.30
2017-04-06T03:35:38.382Z,54.10
2017-04-06T03:36:36.051Z,53.00
2017-04-06T03:37:33.700Z,50.60
2017-04-06T03:38:31.379Z,50.70
2017-04-06T03:39:29.940Z,50.50
2017-04-06T03:40:28.393Z,49.20
2017-04-06T03:41:26.087Z,49.60
2017-04-06T03:42:23.776Z,49.50
2017-04-06T03:43:21.511Z,50.50
2017-04-06T03:44:19.947Z,51.40
2017-04-06T03:45:17.945Z,50.50
2017-04-06T03:46:15.564Z,51.00
2017-04-06T03:47:13.236Z,48.80
2017-04-06T03:48:10.971Z,49.70
2017-04-06T03:49:08.636Z,48.70
2017-04-06T03:50:06.815Z,51.50
2017-04-06T03:51:04.537Z,51.20
2017-04-06T03:52:02.283Z,50.20
2017-04-06T03:52:59.968Z,50.60
2017-04-06T03:53:57.996Z,51.60
2017-04-06T03:54:55.653Z,52.60
2017-04-06T03:55:54.284Z,49.50
2017-04-06T03:56:51.948Z,49.90
2017-04-06T03:57:49.624Z,51.10
2017-04-06T03:58:47.328Z,51.80
2017-04-06T03:59:45.024Z,51.00
2017-04-06T04:00:43.480Z,52.10
2017-04-06T04:01:41.151Z,50.00
2017-04-06T04:02:38.836Z,49.70
2017-04-06T04:03:36.548Z,49.20
2017-04-06T04:04:34.705Z,49.80
2017-04-06T04:05:33.507Z,48.70
2017-04-06T04:06:31.215Z,49.30
2017-04-06T04:07:28.883Z,50.80
2017-04-06T04:08:26.632Z,49.40
2017-04-06T04:09:24.392Z,49.30
2017-04-06T04:10:22.173Z,49.80
2017-04-06T04:11:20.808Z,50.00
2017-04-06T04:12:18.480Z,48.80
2017-04-06T04:13:16.172Z,50.30
2017-04-06T04:14:13.867Z,47.90
2017-04-06T04:15:12.691Z,50.90
2017-04-06T04:16:10.397Z,50.50
2017-04-06T04:17:08.096Z,49.10
2017-04-06T04:18:05.825Z,49.00
2017-04-06T04:19:03.520Z,47.90
2017-04-06T04:20:07.868Z,49.20
2017-04-06T04:21:06.171Z,46.70
2017-04-06T04:22:03.853Z,48.20
2017-04-06T04:23:01.505Z,48.10
2017-04-06T04:23:59.168Z,48.50
2017-04-06T04:24:56.844Z,46.70
2017-04-06T04:25:54.535Z,48.00
2017-04-06T04:26:53.035Z,49.40
2017-04-06T04:27:51.439Z,47.90
2017-04-06T04:28:49.900Z,51.50
2017-04-06T04:29:47.601Z,48.70
2017-04-06T04:30:45.601Z,49.80
2017-04-06T04:31:43.279Z,50.90
2017-04-06T04:32:40.975Z,50.60
2017-04-06T04:33:38.684Z,50.10
2017-04-06T04:34:36.370Z,47.90
2017-04-06T04:35:34.143Z,48.20
2017-04-06T04:36:31.848Z,50.60
2017-04-06T04:37:29.528Z,50.20
2017-04-06T04:38:27.179Z,50.30
2017-04-06T04:39:24.889Z,49.00
2017-04-06T04:40:22.708Z,49.40
2017-04-06T04:41:20.381Z,47.80
2017-04-06T04:42:18.041Z,48.30
2017-04-06T04:43:15.712Z,48.20
2017-04-06T04:44:13.374Z,49.40
2017-04-06T04:45:11.969Z,49.60
2017-04-06T04:46:09.696Z,49.20
2017-04-06T04:47:08.068Z,49.10
2017-04-06T04:48:05.781Z,50.40
2017-04-06T04:49:03.537Z,49.20
2017-04-06T04:50:02.204Z,49.70
2017-04-06T04:50:59.948Z,49.20
2017-04-06T04:51:57.637Z,48.10
2017-04-06T04:52:55.734Z,49.50
2017-04-06T04:53:54.080Z,49.50
2017-04-06T04:54:51.811Z,49.00
2017-04-06T04:55:49.507Z,49.20
2017-04-06T04:56:47.171Z,48.10
2017-04-06T04:57:44.926Z,48.20
2017-04-06T04:58:42.996Z,47.80
2017-04-06T04:59:40.660Z,49.70
2017-04-06T05:00:38.407Z,47.70
2017-04-06T05:01:36.126Z,48.30
2017-04-06T05:02:33.824Z,47.40
2017-04-06T05:03:31.501Z,49.10
2017-04-06T05:04:29.484Z,46.40
2017-04-06T05:05:28.113Z,48.40
2017-04-06T05:06:25.807Z,47.80
2017-04-06T05:07:24.157Z,49.20
2017-04-06T05:08:21.853Z,49.90
2017-04-06T05:09:19.563Z,50.20
2017-04-06T05:10:17.757Z,48.10
2017-04-06T05:11:16.124Z,49.50
2017-04-06T05:12:13.836Z,49.40
2017-04-06T05:13:11.495Z,48.80
2017-04-06T05:14:09.154Z,49.40
2017-04-06T05:15:06.909Z,48.40
2017-04-06T05:16:04.620Z,49.00
2017-04-06T05:17:02.304Z,48.80
2017-04-06T05:18:00.003Z,49.30
2017-04-06T05:18:58.236Z,48.90
2017-04-06T05:19:55.896Z,48.20
2017-04-06T05:20:53.606Z,48.70
2017-04-06T05:21:51.692Z,49.20
2017-04-06T05:22:49.401Z,49.00
2017-04-06T05:23:47.068Z,49.50
2017-04-06T05:24:44.693Z,48.50
2017-04-06T05:25:42.384Z,48.30
2017-04-06T05:26:40.017Z,48.70
2017-04-06T05:27:37.700Z,50.40
2017-04-06T05:28:35.463Z,49.20
2017-04-06T05:29:33.127Z,48.30
2017-04-06T05:30:31.332Z,49.10
2017-04-06T05:31:28.994Z,47.80
2017-04-06T05:32:26.852Z,49.40
2017-04-06T05:33:25.748Z,48.90
2017-04-06T05:34:23.403Z,49.40
2017-04-06T05:35:21.280Z,49.90
2017-04-06T05:36:19.012Z,49.20
2017-04-06T05:37:17.413Z,49.50
2017-04-06T05:38:15.917Z,49.70
2017-04-06T05:39:14.066Z,49.60
2017-04-06T05:40:12.103Z,50.00
2017-04-06T05:41:13.051Z,49.70
2017-04-06T05:42:10.755Z,49.80
2017-04-06T05:43:08.473Z,49.50
2017-04-06T05:44:06.292Z,49.80
2017-04-06T05:45:04.029Z,48.70
2017-04-06T05:46:03.254Z,49.90
2017-04-06T05:47:00.935Z,49.90
2017-04-06T05:47:59.496Z,49.70
2017-04-06T05:48:57.157Z,50.40
2017-04-06T05:49:54.820Z,49.10
2017-04-06T05:50:52.672Z,49.40
2017-04-06T05:51:50.536Z,49.40
2017-04-06T05:52:50.185Z,49.90
2017-04-06T05:53:48.348Z,49.30
2017-04-06T05:54:46.019Z,49.40
2017-04-06T05:55:44.182Z,49.80
2017-04-06T05:56:44.852Z,49.10
2017-04-06T05:57:42.524Z,48.60
2017-04-06T05:58:40.372Z,49.10
2017-04-06T05:59:38.212Z,49.50
2017-04-06T06:00:36.703Z,49.70
2017-04-06T06:01:34.899Z,50.00
2017-04-06T06:02:32.656Z,49.90
2017-04-06T06:03:30.576Z,49.90
2017-04-06T06:04:28.256Z,48.60
2017-04-06T06:05:27.525Z,49.00
2017-04-06T06:06:25.181Z,48.80
2017-04-06T06:07:22.799Z,49.70
2017-04-06T06:08:20.487Z,49.60
2017-04-06T06:09:18.244Z,49.30
2017-04-06T06:10:17.395Z,49.20
2017-04-06T06:11:15.075Z,48.80
2017-04-06T06:12:12.832Z,49.40
2017-04-06T06:13:10.648Z,49.00
2017-04-06T06:14:08.608Z,49.10
2017-04-06T06:15:06.581Z,49.10
2017-04-06T06:16:05.000Z,49.90
2017-04-06T06:17:03.810Z,50.30
2017-04-06T06:18:01.671Z,50.30
2017-04-06T06:18:59.528Z,49.90
2017-04-06T06:19:57.805Z,47.80
2017-04-06T06:20:55.473Z,49.50
2017-04-06T06:21:53.233Z,50.20
2017-04-06T06:22:50.976Z,47.30
2017-04-06T06:23:48.625Z,48.00
2017-04-06T06:24:46.508Z,49.30
2017-04-06T06:25:44.284Z,49.60
2017-04-06T06:26:42.159Z,49.60
2017-04-06T06:27:39.787Z,48.80
2017-04-06T06:28:37.735Z,47.60
2017-04-06T06:29:36.398Z,48.30
2017-04-06T06:30:34.108Z,49.30
2017-04-06T06:31:33.445Z,49.80
2017-04-06T06:32:31.134Z,50.30
2017-04-06T06:33:28.796Z,50.00
2017-04-06T06:34:26.928Z,49.70
2017-04-06T06:35:24.735Z,49.70
2017-04-06T06:36:22.588Z,49.80
2017-04-06T06:37:20.280Z,48.70
2017-04-06T06:38:18.104Z,48.40
2017-04-06T06:39:15.764Z,49.40
2017-04-06T06:40:13.851Z,49.20
2017-04-06T06:41:12.259Z,49.30
2017-04-06T06:42:09.973Z,48.50
2017-04-06T06:43:07.642Z,47.10
2017-04-06T06:44:05.608Z,47.90
2017-04-06T06:45:03.386Z,48.50
2017-04-06T06:46:02.008Z,48.60
2017-04-06T06:46:59.713Z,48.70
2017-04-06T06:47:57.365Z,47.20
2017-04-06T06:48:55.640Z,47.40
2017-04-06T06:49:53.300Z,48.60
2017-04-06T06:50:51.022Z,48.00
2017-04-06T06:51:48.683Z,47.40
2017-04-06T06:52:47.345Z,47.70
2017-04-06T06:53:45.037Z,48.10
2017-04-06T06:54:43.420Z,47.90
2017-04-06T06:55:41.407Z,48.10
2017-04-06T06:56:39.089Z,48.00
2017-04-06T06:57:36.736Z,47.50
2017-04-06T06:58:34.396Z,47.20
2017-04-06T06:59:32.125Z,47.30
2017-04-06T07:00:29.905Z,47.40
2017-04-06T07:01:27.919Z,47.90
2017-04-06T07:02:25.625Z,47.90
2017-04-06T07:03:31.770Z,47.90
2017-04-06T07:04:29.520Z,47.80
2017-04-06T07:05:27.236Z,46.50
2017-04-06T07:06:24.932Z,47.00
2017-04-06T07:07:22.709Z,48.20
2017-04-06T07:08:20.412Z,47.90
2017-04-06T07:09:18.104Z,47.20
2017-04-06T07:10:16.299Z,46.40
2017-04-06T07:11:14.065Z,45.80
2017-04-06T07:12:11.745Z,45.50
2017-04-06T07:13:10.117Z,46.90
2017-04-06T07:14:07.803Z,47.90
2017-04-06T07:15:05.558Z,47.50
2017-04-06T07:16:04.630Z,46.50
2017-04-06T07:17:02.285Z,45.80
2017-04-06T07:17:59.945Z,46.60
2017-04-06T07:18:57.599Z,45.80
2017-04-06T07:19:55.280Z,44.20
2017-04-06T07:20:53.056Z,44.90
2017-04-06T07:21:50.772Z,45.40
2017-04-06T07:22:48.460Z,45.70
2017-04-06T07:23:46.168Z,45.10
2017-04-06T07:24:43.816Z,44.20
2017-04-06T07:25:41.848Z,46.20
2017-04-06T07:26:39.565Z,46.10
2017-04-06T07:27:37.179Z,45.60
2017-04-06T07:28:34.868Z,46.60
2017-04-06T07:29:32.521Z,47.40
2017-04-06T07:30:30.880Z,44.60
2017-04-06T07:31:28.563Z,44.50
2017-04-06T07:32:26.306Z,45.80
2017-04-06T07:33:24.020Z,44.10
2017-04-06T07:34:21.696Z,43.00
2017-04-06T07:35:19.752Z,46.00
2017-04-06T07:36:17.996Z,46.20
2017-04-06T07:37:15.704Z,44.70
2017-04-06T07:38:13.364Z,43.90
2017-04-06T07:39:11.091Z,46.10
2017-04-06T07:40:08.897Z,47.30
2017-04-06T07:41:06.888Z,46.10
2017-04-06T07:42:04.588Z,44.70
2017-04-06T07:43:02.370Z,43.20
2017-04-06T07:44:00.125Z,43.10
2017-04-06T07:44:57.790Z,44.40
2017-04-06T07:45:55.465Z,44.30
2017-04-06T07:46:53.619Z,44.00
2017-04-06T07:47:53.429Z,46.40
2017-04-06T07:48:51.083Z,45.50
2017-04-06T07:49:48.744Z,43.40
2017-04-06T07:50:46.499Z,43.30
2017-04-06T07:51:44.140Z,44.10
2017-04-06T07:52:41.852Z,44.50
2017-04-06T07:53:39.852Z,44.70
2017-04-06T07:54:37.538Z,44.50
2017-04-06T07:55:35.272Z,45.30
2017-04-06T07:56:32.948Z,43.70
2017-04-06T07:57:30.656Z,44.30
2017-04-06T07:58:28.315Z,43.30
2017-04-06T07:59:26.378Z,43.50
2017-04-06T08:00:27.008Z,42.60
2017-04-06T08:01:24.677Z,44.30
2017-04-06T08:02:22.432Z,43.30
2017-04-06T08:03:20.104Z,43.00
2017-04-06T08:04:17.832Z,42.00
2017-04-06T08:05:15.596Z,43.10
2017-04-06T08:06:13.303Z,44.90
2017-04-06T08:07:10.969Z,43.60
2017-04-06T08:08:08.668Z,43.60
2017-04-06T08:09:06.370Z,44.10
2017-04-06T08:10:04.227Z,43.70
2017-04-06T08:11:01.908Z,43.50
2017-04-06T08:11:59.579Z,44.80
2017-04-06T08:12:57.284Z,44.70
2017-04-06T08:13:55.007Z,42.70
2017-04-06T08:14:52.704Z,44.70
2017-04-06T08:15:50.951Z,44.00
2017-04-06T08:16:49.212Z,44.40
2017-04-06T08:17:46.894Z,44.10
2017-04-06T08:18:44.559Z,44.40
2017-04-06T08:19:42.240Z,43.40
2017-04-06T08:20:40.452Z,40.80
2017-04-06T08:21:39.000Z,40.40
2017-04-06T08:22:37.029Z,42.60
2017-04-06T08:23:34.751Z,43.00
2017-04-06T08:24:32.412Z,43.80
2017-04-06T08:25:30.152Z,43.00
2017-04-06T08:26:27.984Z,42.60
2017-04-06T08:27:25.660Z,42.00
2017-04-06T08:28:23.941Z,41.50
2017-04-06T08:29:21.640Z,41.80
2017-04-06T08:30:19.469Z,42.40
2017-04-06T08:31:17.147Z,41.20
2017-04-06T08:32:14.855Z,42.20
2017-04-06T08:33:12.517Z,42.20
2017-04-06T08:34:10.175Z,41.30
2017-04-06T08:35:08.684Z,41.70
2017-04-06T08:36:06.342Z,41.40
2017-04-06T08:37:04.304Z,41.90
2017-04-06T08:38:02.004Z,41.20
2017-04-06T08:38:59.660Z,40.70
2017-04-06T08:39:57.349Z,41.10
2017-04-06T08:40:55.100Z,39.70
2017-04-06T08:41:52.791Z,39.60
2017-04-06T08:42:50.532Z,40.30
2017-04-06T08:43:48.283Z,39.00
2017-04-06T08:44:45.965Z,37.20
2017-04-06T08:45:43.744Z,37.80
2017-04-06T08:46:41.552Z,36.80
2017-04-06T08:47:39.204Z,38.30
2017-04-06T08:48:37.201Z,38.10
2017-04-06T08:49:34.876Z,39.00
2017-04-06T08:50:33.298Z,40.50
2017-04-06T08:51:30.931Z,40.00
2017-04-06T08:52:29.486Z,39.90
2017-04-06T08:53:27.172Z,40.60
2017-04-06T08:54:24.892Z,38.80
2017-04-06T08:55:23.519Z,40.00
2017-04-06T08:56:21.255Z,41.50
2017-04-06T08:57:18.956Z,39.20
2017-04-06T08:58:16.617Z,40.20
2017-04-06T08:59:14.336Z,39.50
2017-04-06T09:00:12.150Z,38.80
2017-04-06T09:01:09.808Z,38.10
2017-04-06T09:02:07.552Z,37.60
2017-04-06T09:03:05.260Z,35.40
2017-04-06T09:04:03.476Z,36.50
2017-04-06T09:05:01.151Z,37.20
2017-04-06T09:05:58.907Z,39.10
2017-04-06T09:06:56.577Z,38.20
2017-04-06T09:07:54.282Z,37.80
2017-04-06T09:08:51.968Z,38.20
2017-04-06T09:09:49.983Z,39.00
2017-04-06T09:10:47.729Z,38.30
2017-04-06T09:11:45.408Z,36.90
2017-04-06T09:12:43.072Z,36.90
2017-04-06T09:13:40.717Z,38.20
2017-04-06T09:14:38.447Z,37.30
2017-04-06T09:15:36.508Z,38.60
2017-04-06T09:16:34.688Z,37.40
2017-04-06T09:17:32.371Z,38.40
2017-04-06T09:18:30.100Z,39.40
2017-04-06T09:19:27.823Z,38.40
2017-04-06T09:20:25.580Z,38.00
2017-04-06T09:21:23.256Z,37.70
2017-04-06T09:22:20.964Z,38.20
2017-04-06T09:23:18.717Z,38.00
2017-04-06T09:24:16.419Z,37.90
2017-04-06T09:25:14.472Z,37.80
2017-04-06T09:26:12.152Z,39.10
2017-04-06T09:27:09.844Z,38.90
2017-04-06T09:28:07.521Z,39.10
2017-04-06T09:29:05.213Z,38.40
2017-04-06T09:30:03.000Z,38.60
2017-04-06T09:31:00.660Z,37.60
2017-04-06T09:31:58.352Z,37.50
2017-04-06T09:32:56.055Z,37.60
2017-04-06T09:33:53.783Z,38.00
2017-04-06T09:34:52.505Z,36.40
2017-04-06T09:35:50.272Z,36.70
2017-04-06T09:36:47.920Z,34.50
2017-04-06T09:37:45.623Z,35.30
2017-04-06T09:38:43.301Z,35.00
2017-04-06T09:39:42.092Z,35.00
2017-04-06T09:40:40.071Z,35.70
2017-04-06T09:41:37.753Z,34.90
2017-04-06T09:42:35.409Z,35.50
2017-04-06T09:43:33.134Z,36.20
2017-04-06T09:44:30.808Z,36.10
2017-04-06T09:45:28.656Z,35.50
2017-04-06T09:46:26.327Z,36.00
2017-04-06T09:47:24.107Z,36.40
2017-04-06T09:48:21.832Z,36.00
2017-04-06T09:49:19.520Z,36.80
2017-04-06T09:50:17.700Z,35.50
2017-04-06T09:51:15.351Z,35.30
2017-04-06T09:52:13.016Z,35.70
2017-04-06T09:53:10.662Z,37.30
2017-04-06T09:54:08.361Z,36.80
2017-04-06T09:55:06.237Z,35.60
2017-04-06T09:56:04.080Z,37.30
2017-04-06T09:57:02.903Z,36.90
2017-04-06T09:58:00.632Z,36.10
2017-04-06T09:58:58.355Z,34.20
2017-04-06T09:59:56.060Z,36.00
2017-04-06T10:00:54.082Z,37.50
2017-04-06T10:01:52.248Z,37.60
2017-04-06T10:02:51.384Z,36.30
2017-04-06T10:03:49.032Z,36.40
2017-04-06T10:04:46.724Z,37.70
2017-04-06T10:05:44.545Z,36.10
2017-04-06T10:06:42.219Z,37.50
2017-04-06T10:07:40.393Z,38.10
2017-04-06T10:08:38.074Z,36.80
2017-04-06T10:09:36.169Z,35.90
2017-04-06T10:10:33.887Z,34.30
2017-04-06T10:11:32.456Z,35.50
2017-04-06T10:12:30.143Z,35.90
2017-04-06T10:13:27.836Z,34.80
2017-04-06T10:14:25.528Z,36.30
2017-04-06T10:15:23.826Z,35.60
2017-04-06T10:16:21.609Z,35.60
2017-04-06T10:17:19.264Z,37.30
2017-04-06T10:18:17.028Z,36.80
2017-04-06T10:19:14.700Z,37.50
2017-04-06T10:20:12.444Z,38.20
2017-04-06T10:21:10.176Z,38.20
2017-04-06T10:22:07.924Z,37.40
2017-04-06T10:23:05.640Z,38.00
2017-04-06T10:24:03.333Z,38.00
2017-04-06T10:25:01.092Z,38.00
2017-04-06T10:25:58.831Z,38.40
2017-04-06T10:26:56.508Z,37.70
2017-04-06T10:27:54.180Z,37.80
2017-04-06T10:28:51.854Z,37.10
2017-04-06T10:29:49.587Z,38.20
2017-04-06T10:30:47.860Z,38.50
2017-04-06T10:31:45.508Z,36.90
2017-04-06T10:32:43.168Z,37.80
2017-04-06T10:33:40.850Z,37.60
2017-04-06T10:34:38.535Z,37.80
2017-04-06T10:35:36.356Z,38.50
2017-04-06T10:36:34.011Z,37.40
2017-04-06T10:37:31.728Z,37.20
2017-04-06T10:38:29.390Z,34.90
2017-04-06T10:39:27.126Z,35.40
2017-04-06T10:40:28.083Z,34.50
2017-04-06T10:41:25.817Z,37.10
2017-04-06T10:42:23.502Z,36.40
2017-04-06T10:43:21.197Z,37.50
2017-04-06T10:44:18.876Z,35.90
2017-04-06T10:45:16.636Z,37.60
2017-04-06T10:46:14.592Z,37.40
2017-04-06T10:47:12.268Z,37.50
2017-04-06T10:48:09.960Z,37.70
2017-04-06T10:49:07.612Z,36.20
2017-04-06T10:50:05.421Z,37.40
2017-04-06T10:51:03.833Z,36.50
2017-04-06T10:52:01.505Z,35.50
2017-04-06T10:52:59.171Z,36.70
2017-04-06T10:53:56.916Z,36.40
2017-04-06T10:54:54.624Z,36.90
2017-04-06T10:55:52.376Z,38.20
2017-04-06T10:56:50.039Z,37.40
2017-04-06T10:57:47.688Z,36.30
2017-04-06T10:58:45.357Z,36.50
2017-04-06T10:59:43.048Z,37.80
2017-04-06T11:00:41.717Z,37.50
2017-04-06T11:01:39.394Z,36.90
2017-04-06T11:02:37.104Z,35.50
2017-04-06T11:03:34.793Z,36.50
2017-04-06T11:04:32.488Z,36.00
2017-04-06T11:05:30.830Z,36.10
2017-04-06T11:06:28.912Z,36.30
2017-04-06T11:07:26.624Z,37.30
2017-04-06T11:08:24.333Z,37.60
2017-04-06T11:09:22.066Z,36.20
2017-04-06T11:10:20.300Z,35.90
2017-04-06T11:11:17.992Z,36.20
2017-04-06T11:12:15.695Z,34.90
2017-04-06T11:13:13.360Z,35.40
2017-04-06T11:14:11.012Z,35.20
2017-04-06T11:15:08.882Z,36.10
2017-04-06T11:16:06.611Z,36.10
2017-04-06T11:17:04.275Z,37.30
2017-04-06T11:18:01.946Z,36.70
2017-04-06T11:18:59.607Z,37.10
2017-04-06T11:19:57.281Z,37.30
2017-04-06T11:20:56.931Z,35.40
2017-04-06T11:21:54.618Z,36.00
2017-04-06T11:22:53.131Z,36.00
2017-04-06T11:23:50.833Z,35.40
2017-04-06T11:24:48.592Z,35.40
2017-04-06T11:25:46.344Z,36.40
2017-04-06T11:26:44.012Z,36.40
2017-04-06T11:27:41.677Z,36.70
2017-04-06T11:28:39.348Z,36.10
2017-04-06T11:29:37.068Z,35.60
2017-04-06T11:30:35.784Z,36.70
2017-04-06T11:31:33.519Z,34.20
2017-04-06T11:32:31.829Z,36.10
2017-04-06T11:33:29.568Z,35.90
2017-04-06T11:34:27.291Z,37.40
2017-04-06T11:35:25.013Z,37.10
2017-04-06T11:36:23.132Z,37.50
2017-04-06T11:37:20.855Z,37.00
2017-04-06T11:38:18.591Z,36.70
2017-04-06T11:39:16.284Z,37.00
2017-04-06T11:40:14.043Z,35.50
2017-04-06T11:41:11.755Z,36.00
2017-04-06T11:42:09.784Z,36.80
2017-04-06T11:43:07.549Z,36.80
2017-04-06T11:44:05.324Z,35.90
2017-04-06T11:45:03.170Z,37.30
2017-04-06T11:46:01.191Z,36.50
2017-04-06T11:46:58.851Z,35.50
2017-04-06T11:47:56.573Z,36.80
2017-04-06T11:48:54.255Z,37.80
2017-04-06T11:49:51.957Z,36.80
2017-04-06T11:50:50.053Z,34.70
2017-04-06T11:51:48.368Z,35.60
2017-04-06T11:52:46.113Z,36.40
2017-04-06T11:53:44.600Z,36.20
2017-04-06T11:54:42.307Z,36.70
2017-04-06T11:55:40.114Z,37.80
2017-04-06T11:56:37.872Z,37.80
2017-04-06T11:57:36.777Z,37.80
2017-04-06T11:58:34.445Z,38.50
2017-04-06T11:59:32.103Z,38.90
2017-04-06T12:00:30.243Z,38.90
2017-04-06T12:01:27.960Z,36.30
2017-04-06T12:02:25.683Z,37.70
2017-04-06T12:03:23.360Z,37.60
2017-04-06T12:04:21.064Z,38.00
2017-04-06T12:05:18.785Z,36.30
2017-04-06T12:06:16.761Z,37.50
2017-04-06T12:07:14.490Z,36.70
2017-04-06T12:08:12.548Z,36.40
2017-04-06T12:09:10.378Z,37.00
2017-04-06T12:10:08.512Z,35.00
2017-04-06T12:11:06.200Z,35.10
2017-04-06T12:12:03.860Z,35.60
2017-04-06T12:13:01.576Z,35.20
2017-04-06T12:13:59.312Z,36.10
2017-04-06T12:14:57.037Z,36.60
2017-04-06T12:15:55.052Z,37.20
2017-04-06T12:16:52.752Z,37.30
2017-04-06T12:17:51.335Z,37.80
2017-04-06T12:18:48.980Z,36.90
2017-04-06T12:19:47.000Z,36.90
2017-04-06T12:20:44.700Z,37.30
2017-04-06T12:21:42.887Z,37.40
2017-04-06T12:22:40.539Z,39.60
2017-04-06T12:23:38.257Z,39.60
2017-04-06T12:24:35.957Z,39.20
2017-04-06T12:25:33.656Z,38.00